sensor_id;sensor_type;location;lat;lon;timestamp;pressure;altitude;pressure_sealevel;temperature;humidity
72308;BME280;60257;42.638;23.376;2022-07-23T00:00:30;94861.28;;;21.85;43.37
72308;BME280;60257;42.638;23.376;2022-07-23T00:02:55;94866.94;;;21.78;43.39
72308;BME280;60257;42.638;23.376;2022-07-23T00:05:21;94870.66;;;21.68;43.38
72308;BME280;60257;42.638;23.376;2022-07-23T00:07:46;94863.69;;;21.53;44.48
72308;BME280;60257;42.638;23.376;2022-07-23T00:10:12;94868.44;;;21.52;45.18
72308;BME280;60257;42.638;23.376;2022-07-23T00:12:38;94871.97;;;21.56;45.13
72308;BME280;60257;42.638;23.376;2022-07-23T00:15:05;94870.38;;;21.59;45.26
72308;BME280;60257;42.638;23.376;2022-07-23T00:17:32;94879.63;;;21.45;45.91
72308;BME280;60257;42.638;23.376;2022-07-23T00:19:57;94877.56;;;21.53;46.01
72308;BME280;60257;42.638;23.376;2022-07-23T00:22:23;94881.66;;;21.45;46.83
72308;BME280;60257;42.638;23.376;2022-07-23T00:24:49;94883.50;;;21.17;47.75
72308;BME280;60257;42.638;23.376;2022-07-23T00:27:14;94885.94;;;21.15;48.73
72308;BME280;60257;42.638;23.376;2022-07-23T00:29:40;94896.41;;;21.38;48.59
72308;BME280;60257;42.638;23.376;2022-07-23T00:32:05;94895.81;;;21.16;49.41
72308;BME280;60257;42.638;23.376;2022-07-23T00:34:31;94895.56;;;21.00;50.35
72308;BME280;60257;42.638;23.376;2022-07-23T00:36:56;94895.69;;;20.86;50.61
72308;BME280;60257;42.638;23.376;2022-07-23T00:39:22;94890.28;;;20.68;51.19
72308;BME280;60257;42.638;23.376;2022-07-23T00:41:48;94897.41;;;20.69;50.89
72308;BME280;60257;42.638;23.376;2022-07-23T00:44:23;94891.78;;;20.80;51.18
72308;BME280;60257;42.638;23.376;2022-07-23T00:46:53;94888.16;;;20.83;51.11
72308;BME280;60257;42.638;23.376;2022-07-23T00:49:24;94894.03;;;20.92;50.99
72308;BME280;60257;42.638;23.376;2022-07-23T00:51:50;94889.88;;;20.70;51.05
72308;BME280;60257;42.638;23.376;2022-07-23T00:54:17;94897.47;;;20.59;51.95
72308;BME280;60257;42.638;23.376;2022-07-23T00:56:45;94883.56;;;20.66;51.76
72308;BME280;60257;42.638;23.376;2022-07-23T00:59:11;94887.16;;;20.59;51.89
72308;BME280;60257;42.638;23.376;2022-07-23T01:01:37;94892.72;;;20.59;52.21
72308;BME280;60257;42.638;23.376;2022-07-23T01:04:02;94888.00;;;20.53;52.20
72308;BME280;60257;42.638;23.376;2022-07-23T01:06:28;94883.28;;;20.50;52.26
72308;BME280;60257;42.638;23.376;2022-07-23T01:08:55;94882.06;;;20.54;52.30
72308;BME280;60257;42.638;23.376;2022-07-23T01:11:23;94888.88;;;20.46;52.12
72308;BME280;60257;42.638;23.376;2022-07-23T01:13:49;94879.75;;;20.46;52.51
72308;BME280;60257;42.638;23.376;2022-07-23T01:16:14;94892.44;;;20.47;52.97
72308;BME280;60257;42.638;23.376;2022-07-23T01:18:40;94888.50;;;20.41;53.18
72308;BME280;60257;42.638;23.376;2022-07-23T01:21:05;94881.03;;;20.27;53.63
72308;BME280;60257;42.638;23.376;2022-07-23T01:23:31;94880.34;;;20.12;54.03
72308;BME280;60257;42.638;23.376;2022-07-23T01:25:57;94882.69;;;20.17;53.85
72308;BME280;60257;42.638;23.376;2022-07-23T01:28:22;94870.44;;;20.11;53.96
72308;BME280;60257;42.638;23.376;2022-07-23T01:30:48;94876.00;;;20.08;54.14
72308;BME280;60257;42.638;23.376;2022-07-23T01:33:14;94873.59;;;20.13;53.69
72308;BME280;60257;42.638;23.376;2022-07-23T01:35:40;94873.66;;;20.03;54.03
72308;BME280;60257;42.638;23.376;2022-07-23T01:38:05;94872.09;;;19.98;54.32
72308;BME280;60257;42.638;23.376;2022-07-23T01:40:31;94869.75;;;19.93;53.54
72308;BME280;60257;42.638;23.376;2022-07-23T01:42:56;94874.47;;;19.96;53.81
72308;BME280;60257;42.638;23.376;2022-07-23T01:45:22;94870.13;;;19.95;53.37
72308;BME280;60257;42.638;23.376;2022-07-23T01:47:48;94876.81;;;20.01;53.10
72308;BME280;60257;42.638;23.376;2022-07-23T01:50:13;94871.72;;;19.96;53.26
72308;BME280;60257;42.638;23.376;2022-07-23T01:52:39;94864.25;;;19.82;52.23
72308;BME280;60257;42.638;23.376;2022-07-23T01:55:05;94871.72;;;19.89;52.12
72308;BME280;60257;42.638;23.376;2022-07-23T01:57:31;94876.09;;;19.90;52.18
72308;BME280;60257;42.638;23.376;2022-07-23T01:59:57;94870.19;;;19.88;52.10
72308;BME280;60257;42.638;23.376;2022-07-23T02:02:22;94872.53;;;19.89;52.21
72308;BME280;60257;42.638;23.376;2022-07-23T02:04:48;94873.28;;;19.97;51.86
72308;BME280;60257;42.638;23.376;2022-07-23T02:07:13;94880.75;;;20.07;51.29
72308;BME280;60257;42.638;23.376;2022-07-23T02:09:38;94877.22;;;20.00;51.12
72308;BME280;60257;42.638;23.376;2022-07-23T02:12:04;94873.25;;;20.01;50.76
72308;BME280;60257;42.638;23.376;2022-07-23T02:14:30;94870.13;;;19.99;50.91
72308;BME280;60257;42.638;23.376;2022-07-23T02:16:56;94880.03;;;19.96;51.14
72308;BME280;60257;42.638;23.376;2022-07-23T02:19:21;94875.66;;;19.95;50.68
72308;BME280;60257;42.638;23.376;2022-07-23T02:21:47;94876.09;;;19.90;50.63
72308;BME280;60257;42.638;23.376;2022-07-23T02:24:12;94876.91;;;19.87;50.46
72308;BME280;60257;42.638;23.376;2022-07-23T02:26:38;94876.88;;;19.90;50.50
72308;BME280;60257;42.638;23.376;2022-07-23T02:29:04;94879.28;;;19.85;50.75
72308;BME280;60257;42.638;23.376;2022-07-23T02:31:29;94875.31;;;19.86;50.81
72308;BME280;60257;42.638;23.376;2022-07-23T02:33:55;94879.69;;;19.80;50.80
72308;BME280;60257;42.638;23.376;2022-07-23T02:36:21;94878.13;;;19.75;51.06
72308;BME280;60257;42.638;23.376;2022-07-23T02:38:46;94881.72;;;19.76;50.77
72308;BME280;60257;42.638;23.376;2022-07-23T02:41:12;94880.97;;;19.68;51.25
72308;BME280;60257;42.638;23.376;2022-07-23T02:43:38;94873.03;;;19.67;51.33
72308;BME280;60257;42.638;23.376;2022-07-23T02:46:03;94884.50;;;19.72;51.20
72308;BME280;60257;42.638;23.376;2022-07-23T02:48:30;94884.53;;;19.69;51.63
72308;BME280;60257;42.638;23.376;2022-07-23T02:50:55;94889.63;;;19.77;51.93
72308;BME280;60257;42.638;23.376;2022-07-23T02:53:22;94889.16;;;19.89;51.80
72308;BME280;60257;42.638;23.376;2022-07-23T02:55:48;94890.31;;;19.96;51.59
72308;BME280;60257;42.638;23.376;2022-07-23T02:58:16;94894.25;;;20.02;51.97
72308;BME280;60257;42.638;23.376;2022-07-23T03:00:42;94899.38;;;20.07;52.09
72308;BME280;60257;42.638;23.376;2022-07-23T03:03:07;94898.63;;;20.03;52.44
72308;BME280;60257;42.638;23.376;2022-07-23T03:05:33;94894.00;;;19.71;53.40
72308;BME280;60257;42.638;23.376;2022-07-23T03:08:01;94901.16;;;19.62;53.70
72308;BME280;60257;42.638;23.376;2022-07-23T03:10:26;94899.19;;;19.55;53.80
72308;BME280;60257;42.638;23.376;2022-07-23T03:12:52;94902.38;;;19.57;53.83
72308;BME280;60257;42.638;23.376;2022-07-23T03:15:17;94910.72;;;19.54;54.48
72308;BME280;60257;42.638;23.376;2022-07-23T03:17:43;94903.59;;;19.53;53.92
72308;BME280;60257;42.638;23.376;2022-07-23T03:20:09;94909.13;;;19.38;54.91
72308;BME280;60257;42.638;23.376;2022-07-23T03:22:34;94907.56;;;19.44;54.78
72308;BME280;60257;42.638;23.376;2022-07-23T03:25:00;94911.09;;;19.41;54.97
72308;BME280;60257;42.638;23.376;2022-07-23T03:27:27;94915.47;;;19.39;55.27
72308;BME280;60257;42.638;23.376;2022-07-23T03:29:56;94915.84;;;19.59;55.24
72308;BME280;60257;42.638;23.376;2022-07-23T03:32:22;94917.81;;;19.58;55.26
72308;BME280;60257;42.638;23.376;2022-07-23T03:34:48;94920.97;;;19.60;55.40
72308;BME280;60257;42.638;23.376;2022-07-23T03:37:14;94912.28;;;19.58;55.70
72308;BME280;60257;42.638;23.376;2022-07-23T03:39:40;94914.63;;;19.60;55.20
72308;BME280;60257;42.638;23.376;2022-07-23T03:42:06;94915.09;;;19.44;55.74
72308;BME280;60257;42.638;23.376;2022-07-23T03:44:32;94919.41;;;19.45;55.89
72308;BME280;60257;42.638;23.376;2022-07-23T03:46:57;94921.78;;;19.43;55.96
72308;BME280;60257;42.638;23.376;2022-07-23T03:49:23;94922.97;;;19.42;56.15
72308;BME280;60257;42.638;23.376;2022-07-23T03:51:49;94918.25;;;19.50;56.32
72308;BME280;60257;42.638;23.376;2022-07-23T03:54:14;94927.34;;;19.54;56.26
72308;BME280;60257;42.638;23.376;2022-07-23T03:56:40;94931.69;;;19.55;56.19
72308;BME280;60257;42.638;23.376;2022-07-23T03:59:05;94931.69;;;19.51;56.40
72308;BME280;60257;42.638;23.376;2022-07-23T04:01:31;94930.13;;;19.46;56.46
72308;BME280;60257;42.638;23.376;2022-07-23T04:03:56;94934.06;;;19.42;56.73
72308;BME280;60257;42.638;23.376;2022-07-23T04:06:22;94926.97;;;19.44;56.77
72308;BME280;60257;42.638;23.376;2022-07-23T04:08:47;94928.91;;;19.37;56.80
72308;BME280;60257;42.638;23.376;2022-07-23T04:11:13;94927.34;;;19.46;56.93
72308;BME280;60257;42.638;23.376;2022-07-23T04:13:39;94926.50;;;19.60;56.45
72308;BME280;60257;42.638;23.376;2022-07-23T04:16:04;94925.34;;;19.58;56.56
72308;BME280;60257;42.638;23.376;2022-07-23T04:18:30;94929.69;;;19.62;56.44
72308;BME280;60257;42.638;23.376;2022-07-23T04:20:56;94926.44;;;19.74;56.31
72308;BME280;60257;42.638;23.376;2022-07-23T04:23:21;94932.81;;;19.71;56.36
72308;BME280;60257;42.638;23.376;2022-07-23T04:25:47;94930.03;;;19.75;56.20
72308;BME280;60257;42.638;23.376;2022-07-23T04:28:12;94935.91;;;19.91;55.46
72308;BME280;60257;42.638;23.376;2022-07-23T04:30:38;94926.41;;;19.85;55.42
72308;BME280;60257;42.638;23.376;2022-07-23T04:33:03;94938.28;;;19.93;55.61
72308;BME280;60257;42.638;23.376;2022-07-23T04:35:34;94946.56;;;20.03;55.42
72308;BME280;60257;42.638;23.376;2022-07-23T04:37:59;94906.22;;;19.88;55.46
72308;BME280;60257;42.638;23.376;2022-07-23T04:40:26;94943.25;;;20.29;54.57
72308;BME280;60257;42.638;23.376;2022-07-23T04:42:51;94945.16;;;20.43;54.91
72308;BME280;60257;42.638;23.376;2022-07-23T04:45:17;94949.06;;;20.53;54.65
72308;BME280;60257;42.638;23.376;2022-07-23T04:47:42;94944.72;;;20.52;54.72
72308;BME280;60257;42.638;23.376;2022-07-23T04:50:08;94949.75;;;20.67;54.15
72308;BME280;60257;42.638;23.376;2022-07-23T04:52:34;94956.41;;;20.84;53.98
72308;BME280;60257;42.638;23.376;2022-07-23T04:54:59;94949.91;;;21.01;53.20
72308;BME280;60257;42.638;23.376;2022-07-23T04:57:25;94957.72;;;21.17;52.82
72308;BME280;60257;42.638;23.376;2022-07-23T04:59:50;94952.91;;;21.25;52.97
72308;BME280;60257;42.638;23.376;2022-07-23T05:02:16;94955.59;;;21.35;52.22
72308;BME280;60257;42.638;23.376;2022-07-23T05:04:41;94955.66;;;21.66;51.30
72308;BME280;60257;42.638;23.376;2022-07-23T05:07:07;94957.03;;;21.50;51.85
72308;BME280;60257;42.638;23.376;2022-07-23T05:09:32;94962.47;;;21.65;51.91
72308;BME280;60257;42.638;23.376;2022-07-23T05:11:59;94944.53;;;21.69;51.09
72308;BME280;60257;42.638;23.376;2022-07-23T05:14:25;94956.25;;;21.87;50.94
72308;BME280;60257;42.638;23.376;2022-07-23T05:16:50;94957.97;;;21.74;51.76
72308;BME280;60257;42.638;23.376;2022-07-23T05:19:16;94960.88;;;21.60;52.23
72308;BME280;60257;42.638;23.376;2022-07-23T05:21:41;94963.97;;;22.07;50.38
72308;BME280;60257;42.638;23.376;2022-07-23T05:24:07;94962.03;;;22.03;50.55
72308;BME280;60257;42.638;23.376;2022-07-23T05:26:32;94960.53;;;21.95;50.85
72308;BME280;60257;42.638;23.376;2022-07-23T05:28:58;94960.88;;;22.01;50.94
72308;BME280;60257;42.638;23.376;2022-07-23T05:31:23;94969.66;;;21.96;51.47
72308;BME280;60257;42.638;23.376;2022-07-23T05:33:48;94976.03;;;21.93;50.70
72308;BME280;60257;42.638;23.376;2022-07-23T05:36:14;94971.88;;;21.74;51.16
72308;BME280;60257;42.638;23.376;2022-07-23T05:38:39;94974.88;;;21.90;51.19
72308;BME280;60257;42.638;23.376;2022-07-23T05:41:05;94971.66;;;21.95;52.17
72308;BME280;60257;42.638;23.376;2022-07-23T05:43:30;94969.16;;;22.04;52.21
72308;BME280;60257;42.638;23.376;2022-07-23T05:45:56;94964.19;;;22.23;50.76
72308;BME280;60257;42.638;23.376;2022-07-23T05:48:21;94961.25;;;22.33;51.08
72308;BME280;60257;42.638;23.376;2022-07-23T05:50:47;94957.78;;;22.56;50.23
72308;BME280;60257;42.638;23.376;2022-07-23T05:53:13;94962.16;;;22.84;49.02
72308;BME280;60257;42.638;23.376;2022-07-23T05:55:38;94961.53;;;23.23;47.93
72308;BME280;60257;42.638;23.376;2022-07-23T05:58:04;94960.63;;;23.06;48.05
72308;BME280;60257;42.638;23.376;2022-07-23T06:00:30;94963.44;;;23.03;48.21
72308;BME280;60257;42.638;23.376;2022-07-23T06:02:56;94968.06;;;23.13;47.82
72308;BME280;60257;42.638;23.376;2022-07-23T06:05:22;94958.75;;;23.46;46.46
72308;BME280;60257;42.638;23.376;2022-07-23T06:07:47;94957.78;;;23.56;46.66
72308;BME280;60257;42.638;23.376;2022-07-23T06:10:13;94959.84;;;23.52;46.34
72308;BME280;60257;42.638;23.376;2022-07-23T06:12:38;94965.28;;;23.83;45.91
72308;BME280;60257;42.638;23.376;2022-07-23T06:15:04;94959.41;;;23.77;47.05
72308;BME280;60257;42.638;23.376;2022-07-23T06:17:30;94958.41;;;23.87;47.44
72308;BME280;60257;42.638;23.376;2022-07-23T06:19:56;94952.47;;;24.05;46.31
72308;BME280;60257;42.638;23.376;2022-07-23T06:22:22;94950.66;;;24.18;46.67
72308;BME280;60257;42.638;23.376;2022-07-23T06:24:49;94958.63;;;24.16;47.83
72308;BME280;60257;42.638;23.376;2022-07-23T06:27:15;94956.75;;;24.09;47.87
72308;BME280;60257;42.638;23.376;2022-07-23T06:29:40;94958.63;;;24.16;47.52
72308;BME280;60257;42.638;23.376;2022-07-23T06:32:07;94952.63;;;24.37;47.91
72308;BME280;60257;42.638;23.376;2022-07-23T06:34:33;94953.97;;;24.49;47.14
72308;BME280;60257;42.638;23.376;2022-07-23T06:36:59;94954.09;;;24.62;45.86
72308;BME280;60257;42.638;23.376;2022-07-23T06:39:24;94958.56;;;24.75;45.53
72308;BME280;60257;42.638;23.376;2022-07-23T06:41:50;94949.91;;;24.89;44.95
72308;BME280;60257;42.638;23.376;2022-07-23T06:44:15;94956.53;;;25.28;42.97
72308;BME280;60257;42.638;23.376;2022-07-23T06:46:41;94949.75;;;25.29;42.87
72308;BME280;60257;42.638;23.376;2022-07-23T06:49:06;94954.09;;;25.62;41.52
72308;BME280;60257;42.638;23.376;2022-07-23T06:51:32;94954.97;;;25.43;42.17
72308;BME280;60257;42.638;23.376;2022-07-23T06:53:57;94952.63;;;25.25;42.23
72308;BME280;60257;42.638;23.376;2022-07-23T06:56:23;94951.06;;;25.24;42.20
72308;BME280;60257;42.638;23.376;2022-07-23T06:58:49;94947.31;;;25.31;42.89
72308;BME280;60257;42.638;23.376;2022-07-23T07:01:14;94944.94;;;25.45;43.03
72308;BME280;60257;42.638;23.376;2022-07-23T07:03:40;94951.91;;;25.70;41.79
72308;BME280;60257;42.638;23.376;2022-07-23T07:06:05;94943.78;;;25.75;41.05
72308;BME280;60257;42.638;23.376;2022-07-23T07:08:30;94942.97;;;25.75;41.15
72308;BME280;60257;42.638;23.376;2022-07-23T07:10:56;94944.25;;;26.15;39.27
72308;BME280;60257;42.638;23.376;2022-07-23T07:13:21;94939.75;;;26.47;38.88
72308;BME280;60257;42.638;23.376;2022-07-23T07:15:47;94934.13;;;26.34;38.77
72308;BME280;60257;42.638;23.376;2022-07-23T07:18:12;94940.06;;;26.36;38.77
72308;BME280;60257;42.638;23.376;2022-07-23T07:20:38;94933.19;;;26.24;38.51
72308;BME280;60257;42.638;23.376;2022-07-23T07:23:03;94937.53;;;26.13;39.28
72308;BME280;60257;42.638;23.376;2022-07-23T07:25:28;94931.69;;;26.07;40.26
72308;BME280;60257;42.638;23.376;2022-07-23T07:27:54;94934.97;;;26.18;38.53
72308;BME280;60257;42.638;23.376;2022-07-23T07:30:19;94932.97;;;26.19;39.12
72308;BME280;60257;42.638;23.376;2022-07-23T07:32:45;94928.50;;;26.21;39.05
72308;BME280;60257;42.638;23.376;2022-07-23T07:35:11;94916.19;;;26.32;39.70
72308;BME280;60257;42.638;23.376;2022-07-23T07:37:36;94919.78;;;26.45;39.42
72308;BME280;60257;42.638;23.376;2022-07-23T07:40:02;94923.19;;;26.65;38.98
72308;BME280;60257;42.638;23.376;2022-07-23T07:42:28;94922.19;;;27.35;36.39
72308;BME280;60257;42.638;23.376;2022-07-23T07:44:53;94916.59;;;27.09;37.72
72308;BME280;60257;42.638;23.376;2022-07-23T07:47:19;94912.91;;;27.00;37.86
72308;BME280;60257;42.638;23.376;2022-07-23T07:49:44;94911.78;;;27.10;37.11
72308;BME280;60257;42.638;23.376;2022-07-23T07:52:10;94915.25;;;27.14;36.71
72308;BME280;60257;42.638;23.376;2022-07-23T07:54:36;94913.75;;;27.22;36.43
72308;BME280;60257;42.638;23.376;2022-07-23T07:57:01;94914.69;;;27.32;36.79
72308;BME280;60257;42.638;23.376;2022-07-23T07:59:27;94913.50;;;27.42;37.59
72308;BME280;60257;42.638;23.376;2022-07-23T08:01:52;94912.75;;;27.41;37.01
72308;BME280;60257;42.638;23.376;2022-07-23T08:04:18;94915.09;;;27.90;35.90
72308;BME280;60257;42.638;23.376;2022-07-23T08:06:44;94915.38;;;27.70;36.36
72308;BME280;60257;42.638;23.376;2022-07-23T08:09:09;94902.56;;;27.69;36.89
72308;BME280;60257;42.638;23.376;2022-07-23T08:11:35;94910.56;;;27.71;36.89
72308;BME280;60257;42.638;23.376;2022-07-23T08:14:00;94900.78;;;27.75;36.04
72308;BME280;60257;42.638;23.376;2022-07-23T08:16:26;94900.78;;;27.75;35.92
72308;BME280;60257;42.638;23.376;2022-07-23T08:18:51;94897.56;;;27.86;36.08
72308;BME280;60257;42.638;23.376;2022-07-23T08:21:17;94898.94;;;28.03;35.96
72308;BME280;60257;42.638;23.376;2022-07-23T08:23:42;94902.84;;;28.18;35.02
72308;BME280;60257;42.638;23.376;2022-07-23T08:26:08;94900.91;;;28.15;35.06
72308;BME280;60257;42.638;23.376;2022-07-23T08:28:33;94898.44;;;28.17;35.87
72308;BME280;60257;42.638;23.376;2022-07-23T08:30:59;94904.06;;;28.39;35.25
72308;BME280;60257;42.638;23.376;2022-07-23T08:33:25;94900.28;;;28.33;35.29
72308;BME280;60257;42.638;23.376;2022-07-23T08:35:51;94898.44;;;28.39;34.67
72308;BME280;60257;42.638;23.376;2022-07-23T08:38:20;94894.97;;;28.66;33.89
72308;BME280;60257;42.638;23.376;2022-07-23T08:40:51;94900.59;;;28.66;34.16
72308;BME280;60257;42.638;23.376;2022-07-23T08:43:24;94899.44;;;28.76;33.92
72308;BME280;60257;42.638;23.376;2022-07-23T08:45:52;94901.72;;;28.68;34.34
72308;BME280;60257;42.638;23.376;2022-07-23T08:48:23;94901.84;;;28.65;34.62
72308;BME280;60257;42.638;23.376;2022-07-23T08:50:51;94901.50;;;28.84;34.26
72308;BME280;60257;42.638;23.376;2022-07-23T08:53:19;94895.63;;;28.70;34.60
72308;BME280;60257;42.638;23.376;2022-07-23T08:55:46;94900.59;;;28.88;33.43
72308;BME280;60257;42.638;23.376;2022-07-23T08:58:13;94887.78;;;28.87;33.12
72308;BME280;60257;42.638;23.376;2022-07-23T09:00:39;94895.59;;;28.92;32.73
72308;BME280;60257;42.638;23.376;2022-07-23T09:03:05;94890.75;;;28.92;32.79
72308;BME280;60257;42.638;23.376;2022-07-23T09:05:30;94893.66;;;29.28;31.87
72308;BME280;60257;42.638;23.376;2022-07-23T09:10:47;94886.59;;;29.06;32.79
72308;BME280;60257;42.638;23.376;2022-07-23T09:13:24;94892.81;;;29.41;32.45
72308;BME280;60257;42.638;23.376;2022-07-23T09:15:51;94892.38;;;29.60;32.07
72308;BME280;60257;42.638;23.376;2022-07-23T09:18:17;94883.13;;;29.42;32.82
72308;BME280;60257;42.638;23.376;2022-07-23T09:20:45;94886.72;;;29.69;31.91
72308;BME280;60257;42.638;23.376;2022-07-23T09:23:11;94885.50;;;29.61;32.03
72308;BME280;60257;42.638;23.376;2022-07-23T09:25:36;94884.09;;;29.75;31.72
72308;BME280;60257;42.638;23.376;2022-07-23T09:28:03;94882.03;;;29.66;31.85
72308;BME280;60257;42.638;23.376;2022-07-23T09:30:30;94883.13;;;29.78;31.49
72308;BME280;60257;42.638;23.376;2022-07-23T09:33:13;94883.66;;;29.95;30.46
72308;BME280;60257;42.638;23.376;2022-07-23T09:35:55;94873.78;;;29.90;30.69
72308;BME280;60257;42.638;23.376;2022-07-23T09:38:23;94873.44;;;29.97;30.38
72308;BME280;60257;42.638;23.376;2022-07-23T09:41:08;94874.25;;;29.98;30.41
72308;BME280;60257;42.638;23.376;2022-07-23T09:43:34;94872.34;;;30.22;29.58
72308;BME280;60257;42.638;23.376;2022-07-23T09:48:44;94861.78;;;30.59;29.42
72308;BME280;60257;42.638;23.376;2022-07-23T09:51:10;94861.78;;;30.50;30.25
72308;BME280;60257;42.638;23.376;2022-07-23T09:53:35;94858.38;;;30.37;29.82
72308;BME280;60257;42.638;23.376;2022-07-23T09:56:01;94856.00;;;30.53;30.61
72308;BME280;60257;42.638;23.376;2022-07-23T09:58:28;94851.22;;;30.78;29.63
72308;BME280;60257;42.638;23.376;2022-07-23T10:00:57;94843.41;;;30.73;30.27
72308;BME280;60257;42.638;23.376;2022-07-23T10:03:23;94841.66;;;30.75;30.19
72308;BME280;60257;42.638;23.376;2022-07-23T10:05:50;94844.00;;;30.77;29.77
72308;BME280;60257;42.638;23.376;2022-07-23T10:08:18;94836.53;;;31.07;27.57
72308;BME280;60257;42.638;23.376;2022-07-23T10:10:46;94839.75;;;31.14;27.29
72308;BME280;60257;42.638;23.376;2022-07-23T10:13:14;94836.38;;;31.58;25.94
72308;BME280;60257;42.638;23.376;2022-07-23T10:15:58;94833.41;;;31.76;25.74
72308;BME280;60257;42.638;23.376;2022-07-23T10:18:24;94830.72;;;31.58;26.94
72308;BME280;60257;42.638;23.376;2022-07-23T10:20:50;94832.75;;;31.57;25.52
72308;BME280;60257;42.638;23.376;2022-07-23T10:23:30;94828.28;;;32.04;23.84
72308;BME280;60257;42.638;23.376;2022-07-23T10:26:23;94827.75;;;31.76;23.65
72308;BME280;60257;42.638;23.376;2022-07-23T10:31:56;94822.03;;;31.85;22.65
72308;BME280;60257;42.638;23.376;2022-07-23T10:34:34;94817.84;;;31.95;21.91
72308;BME280;60257;42.638;23.376;2022-07-23T10:37:14;94822.44;;;32.07;21.78
72308;BME280;60257;42.638;23.376;2022-07-23T10:40:17;94814.78;;;32.22;21.52
72308;BME280;60257;42.638;23.376;2022-07-23T10:42:47;94804.56;;;32.25;20.99
72308;BME280;60257;42.638;23.376;2022-07-23T10:45:35;94811.94;;;32.37;22.05
72308;BME280;60257;42.638;23.376;2022-07-23T10:50:39;94804.63;;;32.16;22.60
72308;BME280;60257;42.638;23.376;2022-07-23T10:53:10;94795.19;;;32.34;22.61
72308;BME280;60257;42.638;23.376;2022-07-23T10:55:46;94797.06;;;32.86;22.12
72308;BME280;60257;42.638;23.376;2022-07-23T10:58:23;94788.19;;;33.14;21.03
72308;BME280;60257;42.638;23.376;2022-07-23T11:00:49;94780.78;;;32.81;20.72
72308;BME280;60257;42.638;23.376;2022-07-23T11:03:29;94780.63;;;32.70;18.61
72308;BME280;60257;42.638;23.376;2022-07-23T11:05:57;94775.00;;;32.90;18.86
72308;BME280;60257;42.638;23.376;2022-07-23T11:08:26;94775.47;;;32.69;19.41
72308;BME280;60257;42.638;23.376;2022-07-23T11:13:47;94776.31;;;33.09;19.70
72308;BME280;60257;42.638;23.376;2022-07-23T11:16:15;94770.69;;;32.95;19.11
72308;BME280;60257;42.638;23.376;2022-07-23T11:32:04;94751.50;;;33.39;17.01
72308;BME280;60257;42.638;23.376;2022-07-23T11:36:59;94745.97;;;33.30;16.81
72308;BME280;60257;42.638;23.376;2022-07-23T11:39:26;94743.97;;;33.57;15.69
72308;BME280;60257;42.638;23.376;2022-07-23T11:41:53;94742.66;;;33.52;15.60
72308;BME280;60257;42.638;23.376;2022-07-23T11:44:46;94744.59;;;33.86;16.27
72308;BME280;60257;42.638;23.376;2022-07-23T11:47:11;94740.69;;;33.64;16.78
72308;BME280;60257;42.638;23.376;2022-07-23T11:49:38;94742.63;;;33.72;17.49
72308;BME280;60257;42.638;23.376;2022-07-23T11:54:30;94731.16;;;33.81;16.86
72308;BME280;60257;42.638;23.376;2022-07-23T11:57:00;94732.13;;;34.04;17.12
72308;BME280;60257;42.638;23.376;2022-07-23T11:59:27;94725.97;;;34.06;17.15
72308;BME280;60257;42.638;23.376;2022-07-23T12:02:02;94731.66;;;34.11;17.50
72308;BME280;60257;42.638;23.376;2022-07-23T12:04:56;94718.66;;;34.56;16.28
72308;BME280;60257;42.638;23.376;2022-07-23T12:07:43;94719.81;;;34.39;17.08
72308;BME280;60257;42.638;23.376;2022-07-23T12:10:14;94717.22;;;34.35;16.99
72308;BME280;60257;42.638;23.376;2022-07-23T12:12:51;94720.44;;;34.22;17.54
72308;BME280;60257;42.638;23.376;2022-07-23T12:15:23;94716.75;;;34.73;16.32
72308;BME280;60257;42.638;23.376;2022-07-23T12:17:50;94711.19;;;34.59;15.82
72308;BME280;60257;42.638;23.376;2022-07-23T12:20:20;94710.06;;;34.45;15.78
72308;BME280;60257;42.638;23.376;2022-07-23T12:22:48;94708.91;;;34.63;15.42
72308;BME280;60257;42.638;23.376;2022-07-23T12:25:21;94710.81;;;34.77;14.97
72308;BME280;60257;42.638;23.376;2022-07-23T12:28:02;94707.81;;;34.55;14.95
72308;BME280;60257;42.638;23.376;2022-07-23T12:30:34;94700.63;;;34.59;15.31
72308;BME280;60257;42.638;23.376;2022-07-23T12:33:03;94700.94;;;34.67;16.18
72308;BME280;60257;42.638;23.376;2022-07-23T12:35:36;94706.56;;;34.61;14.88
72308;BME280;60257;42.638;23.376;2022-07-23T12:38:09;94696.34;;;34.69;14.46
72308;BME280;60257;42.638;23.376;2022-07-23T12:43:10;94699.78;;;34.90;16.53
72308;BME280;60257;42.638;23.376;2022-07-23T12:46:25;94691.56;;;34.92;16.06
72308;BME280;60257;42.638;23.376;2022-07-23T12:48:36;94684.03;;;34.84;15.10
72308;BME280;60257;42.638;23.376;2022-07-23T12:51:08;94680.44;;;34.89;14.59
72308;BME280;60257;42.638;23.376;2022-07-23T12:53:40;94686.34;;;34.85;14.71
72308;BME280;60257;42.638;23.376;2022-07-23T12:56:08;94679.50;;;35.08;14.50
72308;BME280;60257;42.638;23.376;2022-07-23T12:58:48;94683.34;;;35.05;14.18
72308;BME280;60257;42.638;23.376;2022-07-23T13:04:06;94678.09;;;35.35;13.57
72308;BME280;60257;42.638;23.376;2022-07-23T13:06:34;94673.97;;;35.36;13.66
72308;BME280;60257;42.638;23.376;2022-07-23T13:09:01;94671.00;;;35.14;13.85
72308;BME280;60257;42.638;23.376;2022-07-23T13:11:26;94671.63;;;35.40;14.63
72308;BME280;60257;42.638;23.376;2022-07-23T13:13:52;94670.09;;;35.45;14.34
72308;BME280;60257;42.638;23.376;2022-07-23T13:16:18;94667.50;;;35.36;14.48
72308;BME280;60257;42.638;23.376;2022-07-23T13:18:44;94671.16;;;35.47;13.54
72308;BME280;60257;42.638;23.376;2022-07-23T13:21:10;94675.34;;;35.69;13.27
72308;BME280;60257;42.638;23.376;2022-07-23T13:23:35;94670.09;;;35.45;12.25
72308;BME280;60257;42.638;23.376;2022-07-23T13:26:04;94665.94;;;35.35;12.71
72308;BME280;60257;42.638;23.376;2022-07-23T13:28:30;94671.91;;;35.42;12.62